Time;durP1;ratioP1;P1;durP2;ratioP2;P2;SDS_P1;SDS_P2;PMS_P1;PMS_P2;Temp;Humidity;BMP_temperature;BMP_pressure;BME280_temperature;BME280_humidity;BME280_pressure;Samples;Min_cycle;Max_cycle;Signal;HPM_P1;HPM_P2
2022/04/06 00:02:57;;;;;;;6.60;3.38;;;12.60;87.90;;;;;;6229961;28;20052;-83
2022/04/06 00:05:59;;;;;;;5.05;3.45;;;12.50;87.90;;;;;;6229061;28;20041;-83
2022/04/06 00:09:01;;;;;;;5.35;2.92;;;12.60;87.70;;;;;;6228490;28;20042;-83
2022/04/06 00:12:04;;;;;;;4.43;2.60;;;12.60;87.70;;;;;;6228885;28;20132;-83
2022/04/06 00:15:11;;;;;;;5.75;2.90;;;12.50;87.60;;;;;;6228591;28;20068;-83
2022/04/06 00:18:13;;;;;;;6.53;3.20;;;12.40;87.70;;;;;;6227750;28;20555;-82
2022/04/06 00:21:15;;;;;;;7.30;3.35;;;12.50;87.80;;;;;;6228708;28;20041;-82
2022/04/06 00:24:17;;;;;;;5.00;2.83;;;12.50;87.60;;;;;;6228502;28;20049;-81
2022/04/06 00:27:18;;;;;;;4.95;2.97;;;12.50;87.60;;;;;;6226529;28;20048;-83
2022/04/06 00:30:22;;;;;;;5.18;2.55;;;12.60;87.40;;;;;;6228091;28;20137;-82
2022/04/06 00:33:23;;;;;;;4.43;2.72;;;12.60;87.40;;;;;;6227120;28;20068;-83
2022/04/06 00:36:25;;;;;;;2.63;1.92;;;12.70;87.40;;;;;;6228339;28;20068;-83
2022/04/06 00:39:27;;;;;;;3.33;2.58;;;12.70;87.30;;;;;;6227836;28;20577;-83
2022/04/06 00:42:29;;;;;;;7.50;3.28;;;12.70;87.10;;;;;;6227995;28;20153;-83
2022/04/06 00:45:32;;;;;;;8.20;3.72;;;12.70;87.20;;;;;;6226780;28;20529;-83
2022/04/06 00:48:34;;;;;;;9.35;3.15;;;12.70;87.30;;;;;;6226837;28;20127;-83
2022/04/06 00:51:36;;;;;;;5.45;2.83;;;12.70;87.40;;;;;;6227853;28;20057;-83
2022/04/06 00:54:39;;;;;;;3.47;2.20;;;12.70;87.40;;;;;;6226864;28;20062;-83
2022/04/06 00:57:41;;;;;;;4.75;3.00;;;12.70;87.50;;;;;;6227360;28;20077;-83
2022/04/06 01:00:44;;;;;;;5.97;3.13;;;12.70;87.50;;;;;;6227611;28;20073;-82
2022/04/06 01:03:45;;;;;;;5.90;3.17;;;12.70;87.50;;;;;;6227039;28;20053;-83
2022/04/06 01:06:49;;;;;;;6.30;2.80;;;12.70;87.50;;;;;;6226843;28;20050;-83
2022/04/06 01:09:51;;;;;;;3.83;2.80;;;12.70;87.70;;;;;;6226160;28;20052;-84
2022/04/06 01:12:52;;;;;;;7.80;3.60;;;12.70;87.90;;;;;;6226935;28;20041;-82
2022/04/06 01:15:56;;;;;;;4.88;2.90;;;12.60;88.00;;;;;;6228799;28;20491;-83
2022/04/06 01:18:57;;;;;;;7.90;3.40;;;12.60;88.10;;;;;;6227302;28;20480;-83
2022/04/06 01:21:59;;;;;;;5.85;3.45;;;12.60;88.30;;;;;;6228595;28;20056;-84
2022/04/06 01:25:04;;;;;;;4.43;3.10;;;12.60;88.40;;;;;;6227129;28;20519;-82
2022/04/06 01:28:07;;;;;;;5.10;2.58;;;12.60;88.50;;;;;;6228095;28;20049;-83
2022/04/06 01:31:10;;;;;;;6.13;3.38;;;12.60;88.40;;;;;;6231315;28;20056;-82
2022/04/06 01:34:12;;;;;;;5.22;2.92;;;12.60;88.30;;;;;;6233667;28;20045;-82
2022/04/06 01:37:15;;;;;;;7.03;3.42;;;12.60;88.60;;;;;;6234677;28;20508;-82
2022/04/06 01:40:18;;;;;;;4.72;3.20;;;12.60;88.70;;;;;;6246473;28;20042;-82
2022/04/06 01:43:20;;;;;;;5.15;3.28;;;12.50;88.60;;;;;;6234442;28;20046;-82
2022/04/06 01:46:22;;;;;;;4.90;2.92;;;12.60;88.70;;;;;;6234773;28;20052;-83
2022/04/06 01:52:44;;;;;;;4.20;2.70;;;12.60;88.80;;;;;;6230007;28;20043;-82
2022/04/06 01:55:47;;;;;;;6.18;3.20;;;12.60;88.80;;;;;;6232741;28;20128;-83
2022/04/06 01:58:49;;;;;;;6.82;2.80;;;12.60;88.90;;;;;;6230038;28;20056;-83
2022/04/06 02:01:54;;;;;;;6.25;3.75;;;12.50;89.00;;;;;;6227533;28;20129;-82
2022/04/06 02:04:55;;;;;;;5.35;3.75;;;12.60;89.10;;;;;;6228857;28;20049;-83
2022/04/06 02:07:57;;;;;;;7.03;3.40;;;12.50;89.00;;;;;;6228038;28;20266;-82
2022/04/06 02:11:00;;;;;;;4.97;3.28;;;12.50;89.30;;;;;;6226603;28;20069;-82
2022/04/06 02:14:02;;;;;;;6.78;3.50;;;12.40;89.30;;;;;;6228723;28;20045;-83
2022/04/06 02:17:06;;;;;;;4.82;3.30;;;12.40;89.50;;;;;;6230720;28;20106;-83
2022/04/06 02:20:09;;;;;;;4.88;3.28;;;12.40;89.50;;;;;;6230698;28;20057;-83
2022/04/06 02:23:11;;;;;;;4.88;3.20;;;12.40;89.50;;;;;;6229819;28;20152;-83
2022/04/06 02:26:15;;;;;;;4.85;3.03;;;12.40;89.50;;;;;;6230320;28;20056;-83
2022/04/06 02:29:17;;;;;;;4.88;3.15;;;12.40;89.50;;;;;;6230542;28;20045;-83
2022/04/06 02:32:19;;;;;;;6.50;3.03;;;12.50;89.30;;;;;;6230910;28;20100;-83
2022/04/06 02:35:20;;;;;;;6.15;3.20;;;12.50;89.40;;;;;;6231349;28;20128;-83
2022/04/06 02:38:22;;;;;;;5.65;3.08;;;12.40;89.50;;;;;;6232211;28;20042;-83
2022/04/06 02:41:25;;;;;;;4.90;3.47;;;12.40;89.60;;;;;;6232213;28;20125;-83
2022/04/06 02:44:27;;;;;;;8.43;3.17;;;12.50;89.80;;;;;;6232986;28;20058;-83
2022/04/06 02:47:29;;;;;;;4.97;3.00;;;12.40;89.60;;;;;;6234882;28;20050;-83
2022/04/06 02:50:30;;;;;;;6.32;3.20;;;12.40;89.70;;;;;;6229946;28;20052;-83
2022/04/06 02:53:32;;;;;;;4.30;2.47;;;12.40;89.80;;;;;;6227980;28;20520;-83
2022/04/06 02:56:35;;;;;;;4.95;3.03;;;12.40;89.70;;;;;;6227197;28;20482;-83
2022/04/06 02:59:39;;;;;;;4.70;3.05;;;12.40;90.20;;;;;;6228772;28;20049;-82
2022/04/06 03:02:41;;;;;;;2.83;2.15;;;12.50;89.80;;;;;;6231438;28;20053;-83
2022/04/06 03:05:42;;;;;;;3.78;2.20;;;12.50;89.80;;;;;;6230999;28;20069;-83
2022/04/06 03:08:44;;;;;;;4.95;3.22;;;12.50;89.80;;;;;;6228363;28;20153;-83
2022/04/06 03:11:47;;;;;;;6.13;2.70;;;12.50;89.70;;;;;;6229192;28;20057;-82
2022/04/06 03:14:49;;;;;;;5.35;2.90;;;12.50;89.50;;;;;;6229837;28;20153;-83
2022/04/06 03:17:51;;;;;;;6.15;3.63;;;12.50;89.50;;;;;;6228669;28;20042;-82
2022/04/06 03:20:53;;;;;;;4.60;3.00;;;12.50;90.00;;;;;;6228961;28;20081;-82
2022/04/06 03:23:55;;;;;;;9.18;2.85;;;12.50;89.60;;;;;;6229627;28;20054;-82
2022/04/06 03:26:59;;;;;;;3.95;2.72;;;12.40;89.30;;;;;;6228802;28;20567;-82
2022/04/06 03:30:00;;;;;;;7.53;2.80;;;12.50;89.50;;;;;;6229356;28;20538;-82
2022/04/06 03:33:02;;;;;;;4.65;2.35;;;12.40;89.60;;;;;;6229059;28;20415;-82
2022/04/06 03:36:05;;;;;;;5.68;2.53;;;12.40;89.60;;;;;;6229939;28;20050;-82
2022/04/06 03:39:06;;;;;;;3.05;2.22;;;12.40;89.70;;;;;;6229397;28;20038;-82
2022/04/06 03:42:10;;;;;;;3.78;3.00;;;12.40;89.80;;;;;;6229556;28;20060;-82
2022/04/06 03:45:11;;;;;;;5.18;2.42;;;12.50;89.90;;;;;;6230855;28;20109;-81
2022/04/06 03:48:13;;;;;;;6.35;2.67;;;12.50;90.00;;;;;;6230353;28;20050;-82
2022/04/06 03:51:15;;;;;;;6.80;2.30;;;12.40;90.30;;;;;;6230756;28;20484;-82
2022/04/06 03:54:17;;;;;;;6.45;2.20;;;12.40;90.10;;;;;;6230492;28;20046;-83
2022/04/06 03:57:20;;;;;;;2.78;1.85;;;12.40;90.10;;;;;;6231154;28;20056;-83
2022/04/06 04:00:22;;;;;;;2.95;2.08;;;12.60;90.20;;;;;;6229841;28;20455;-84
2022/04/06 04:03:24;;;;;;;4.35;2.65;;;12.50;90.10;;;;;;6231164;28;20124;-84
2022/04/06 04:06:25;;;;;;;3.35;2.15;;;12.50;90.10;;;;;;6231179;28;20193;-83
2022/04/06 04:09:28;;;;;;;4.60;1.95;;;12.50;90.10;;;;;;6230533;28;20630;-83
2022/04/06 04:12:31;;;;;;;2.78;2.10;;;12.50;90.10;;;;;;6231625;28;20140;-84
2022/04/06 04:15:33;;;;;;;3.63;2.67;;;12.50;90.10;;;;;;6231632;28;20057;-83
2022/04/06 04:18:35;;;;;;;3.90;2.55;;;12.50;90.10;;;;;;6231233;28;20065;-84
2022/04/06 04:21:37;;;;;;;3.35;2.30;;;12.50;90.10;;;;;;6232501;28;20088;-83
2022/04/06 04:24:39;;;;;;;4.97;2.53;;;12.50;90.30;;;;;;6231362;28;20053;-83
2022/04/06 04:27:42;;;;;;;8.38;2.47;;;12.60;90.00;;;;;;6230768;28;20046;-83
2022/04/06 04:30:44;;;;;;;7.38;2.90;;;12.60;89.60;;;;;;6231236;28;20113;-83
2022/04/06 04:33:46;;;;;;;3.88;2.42;;;12.50;89.50;;;;;;6231093;28;20105;-83
2022/04/06 04:36:48;;;;;;;3.20;2.45;;;12.50;89.60;;;;;;6232255;28;20041;-83
2022/04/06 04:39:50;;;;;;;9.30;3.28;;;12.50;89.70;;;;;;6232389;28;20135;-83
2022/04/06 04:42:54;;;;;;;5.45;2.35;;;12.50;89.50;;;;;;6234484;28;20109;-83
2022/04/06 04:45:56;;;;;;;4.43;2.58;;;12.50;89.60;;;;;;6235622;28;20050;-83
2022/04/06 04:48:58;;;;;;;5.38;3.00;;;12.40;89.60;;;;;;6241361;28;20061;-82
2022/04/06 04:52:00;;;;;;;6.18;2.92;;;12.50;89.50;;;;;;6249625;28;20041;-83
2022/04/06 04:55:02;;;;;;;5.95;2.50;;;12.50;89.50;;;;;;6232448;28;20046;-83
2022/04/06 04:58:05;;;;;;;5.93;2.63;;;12.50;89.30;;;;;;6227164;28;20045;-82
2022/04/06 05:01:07;;;;;;;3.63;2.92;;;12.50;89.30;;;;;;6228958;28;20046;-83
2022/04/06 05:04:08;;;;;;;6.43;2.33;;;12.50;89.20;;;;;;6228999;28;20045;-83
2022/04/06 05:07:10;;;;;;;5.28;2.50;;;12.50;89.10;;;;;;6227824;28;20041;-83
2022/04/06 05:10:12;;;;;;;6.00;2.90;;;12.50;89.00;;;;;;6228897;28;20176;-82
2022/04/06 05:13:17;;;;;;;10.45;2.67;;;12.50;88.90;;;;;;6226615;28;20049;-83
2022/04/06 05:16:19;;;;;;;4.93;3.00;;;12.50;89.00;;;;;;6227055;28;20388;-83
2022/04/06 05:19:21;;;;;;;5.78;3.30;;;12.50;89.10;;;;;;6228136;28;20065;-83
2022/04/06 05:22:23;;;;;;;5.57;3.13;;;12.50;89.00;;;;;;6227485;28;20100;-82
2022/04/06 05:25:25;;;;;;;4.78;3.03;;;12.50;89.10;;;;;;6226289;28;20157;-83
2022/04/06 05:28:28;;;;;;;5.95;3.70;;;12.50;89.10;;;;;;6226448;28;20049;-82
2022/04/06 05:31:30;;;;;;;5.13;2.65;;;12.50;89.20;;;;;;6226871;28;20101;-82
2022/04/06 05:34:33;;;;;;;7.07;2.67;;;12.60;89.30;;;;;;6225460;28;20064;-83
2022/04/06 05:37:36;;;;;;;2.97;1.98;;;12.50;89.30;;;;;;6229714;28;20045;-82
2022/04/06 05:40:38;;;;;;;4.68;2.58;;;12.50;89.40;;;;;;6227492;28;20046;-82
2022/04/06 05:43:41;;;;;;;3.63;2.25;;;12.50;89.50;;;;;;6228328;28;20806;-82
2022/04/06 05:46:43;;;;;;;2.78;2.08;;;12.60;89.60;;;;;;6227001;28;20461;-82
2022/04/06 05:49:44;;;;;;;3.70;2.03;;;12.60;89.80;;;;;;6230231;28;20046;-82
2022/04/06 05:52:48;;;;;;;6.75;2.20;;;12.60;90.10;;;;;;6232118;28;20119;-82
2022/04/06 05:55:51;;;;;;;3.50;2.13;;;12.50;90.10;;;;;;6232332;28;20050;-83
2022/04/06 05:58:54;;;;;;;5.68;2.50;;;12.60;90.20;;;;;;6231622;28;20042;-82
2022/04/06 06:01:56;;;;;;;6.57;2.22;;;12.60;90.20;;;;;;6230467;28;20104;-82
2022/04/06 06:04:57;;;;;;;5.22;1.67;;;12.70;90.40;;;;;;6231064;28;20073;-82
2022/04/06 06:07:59;;;;;;;4.03;1.67;;;12.70;90.40;;;;;;6231499;28;20140;-82
2022/04/06 06:11:02;;;;;;;2.75;1.63;;;12.80;90.40;;;;;;6231413;28;20045;-82
2022/04/06 06:14:06;;;;;;;3.45;2.00;;;12.70;90.50;;;;;;6230409;28;20053;-82
2022/04/06 06:17:08;;;;;;;3.85;2.33;;;12.70;90.60;;;;;;6231764;28;20056;-83
2022/04/06 06:20:11;;;;;;;4.85;1.88;;;12.70;90.70;;;;;;6230886;28;20045;-82
2022/04/06 06:23:12;;;;;;;5.10;1.92;;;12.80;90.70;;;;;;6230308;28;20045;-82
2022/04/06 06:26:14;;;;;;;2.42;1.42;;;12.90;90.60;;;;;;6232244;28;20064;-82
2022/04/06 06:29:17;;;;;;;2.88;1.90;;;12.80;90.50;;;;;;6231978;28;20508;-82
2022/04/06 06:32:19;;;;;;;2.92;1.70;;;12.80;90.50;;;;;;6231906;28;20050;-82
2022/04/06 06:35:21;;;;;;;3.55;2.15;;;12.90;90.50;;;;;;6230831;28;20054;-82
2022/04/06 06:38:23;;;;;;;3.30;2.03;;;12.80;90.30;;;;;;6229146;28;20132;-83
2022/04/06 06:41:25;;;;;;;3.58;1.73;;;12.90;90.20;;;;;;6229020;28;20160;-83
2022/04/06 06:44:28;;;;;;;6.43;2.40;;;13.00;90.10;;;;;;6230821;28;20065;-82
2022/04/06 06:47:30;;;;;;;4.82;2.38;;;13.00;90.00;;;;;;6229716;28;20157;-83
2022/04/06 06:50:32;;;;;;;9.45;2.05;;;13.10;89.70;;;;;;6231630;28;20100;-83
2022/04/06 06:53:34;;;;;;;7.65;3.50;;;13.20;89.30;;;;;;6231841;28;20595;-84
2022/04/06 06:56:35;;;;;;;4.32;2.42;;;13.30;88.90;;;;;;6232291;28;20512;-83
2022/04/06 06:59:38;;;;;;;7.95;3.08;;;13.40;88.40;;;;;;6229537;28;20049;-83
2022/04/06 07:02:41;;;;;;;2.92;2.17;;;13.50;87.80;;;;;;6230551;28;20049;-83
2022/04/06 07:05:44;;;;;;;5.22;2.92;;;13.60;87.40;;;;;;6230461;28;20061;-83
2022/04/06 07:08:46;;;;;;;2.88;2.35;;;13.70;87.10;;;;;;6231861;28;20045;-83
2022/04/06 07:11:48;;;;;;;3.08;2.40;;;13.70;86.80;;;;;;6231253;28;20423;-83
2022/04/06 07:14:51;;;;;;;4.22;2.40;;;13.70;86.90;;;;;;6230532;28;20320;-83
2022/04/06 07:17:54;;;;;;;4.10;2.65;;;13.70;86.10;;;;;;6230419;28;20056;-83
2022/04/06 07:20:55;;;;;;;2.83;1.83;;;13.80;86.00;;;;;;6231279;28;20411;-83
2022/04/06 07:23:58;;;;;;;4.88;2.47;;;13.90;85.40;;;;;;6231806;28;20152;-83
2022/04/06 07:27:00;;;;;;;5.47;2.30;;;14.00;84.90;;;;;;6230835;28;20053;-83
2022/04/06 07:30:04;;;;;;;3.85;1.98;;;14.00;84.80;;;;;;6230366;28;20150;-83
2022/04/06 07:33:09;;;;;;;4.88;2.35;;;14.00;84.70;;;;;;6231746;28;20056;-82
2022/04/06 07:36:11;;;;;;;5.75;2.30;;;14.10;84.30;;;;;;6230177;28;20132;-82
2022/04/06 07:39:13;;;;;;;3.33;1.77;;;14.00;84.20;;;;;;6229609;28;20412;-82
2022/04/06 07:42:15;;;;;;;3.35;2.47;;;14.10;84.10;;;;;;6231034;28;20053;-82
2022/04/06 07:45:19;;;;;;;4.35;2.10;;;13.90;84.20;;;;;;6230762;28;20065;-82
2022/04/06 07:48:22;;;;;;;4.80;2.45;;;13.90;84.50;;;;;;6230789;28;20114;-82
2022/04/06 07:51:24;;;;;;;4.10;1.88;;;14.10;84.40;;;;;;6231196;28;20133;-82
2022/04/06 07:54:26;;;;;;;3.55;2.15;;;14.50;83.50;;;;;;6232961;28;20125;-84
2022/04/06 07:57:29;;;;;;;3.10;1.88;;;14.70;82.60;;;;;;6224184;28;20141;-83
2022/04/06 08:00:33;;;;;;;2.53;1.85;;;14.90;81.80;;;;;;6232084;28;20046;-82
2022/04/06 08:03:35;;;;;;;4.22;1.60;;;15.00;81.30;;;;;;6222911;28;20101;-83
2022/04/06 08:06:37;;;;;;;3.83;1.58;;;14.90;81.10;;;;;;6225345;28;20065;-82
2022/04/06 08:09:39;;;;;;;5.28;1.75;;;15.00;80.70;;;;;;6231717;28;20058;-82
2022/04/06 08:12:42;;;;;;;4.22;1.30;;;15.20;80.30;;;;;;6229784;28;20046;-82
2022/04/06 08:15:46;;;;;;;2.65;1.67;;;15.40;79.50;;;;;;6226981;28;20523;-83
2022/04/06 08:18:47;;;;;;;2.50;1.65;;;15.50;78.70;;;;;;6229018;28;20050;-82
2022/04/06 08:21:49;;;;;;;3.78;1.60;;;15.50;78.30;;;;;;6229964;28;20129;-81
2022/04/06 08:24:51;;;;;;;1.60;1.13;;;15.40;78.50;;;;;;6227183;28;20458;-83
2022/04/06 08:27:53;;;;;;;3.50;1.58;;;15.40;78.50;;;;;;6228406;28;20050;-82
2022/04/06 08:30:58;;;;;;;1.95;1.25;;;15.40;78.40;;;;;;6224620;28;20072;-82
2022/04/06 08:34:00;;;;;;;2.15;1.20;;;15.40;78.00;;;;;;6234775;28;20187;-85
2022/04/06 08:37:02;;;;;;;3.22;1.40;;;15.50;78.10;;;;;;6234944;28;20120;-84
2022/04/06 08:40:07;;;;;;;2.42;1.30;;;15.50;78.00;;;;;;6227456;28;20041;-86
2022/04/06 08:43:09;;;;;;;7.82;3.20;;;15.50;77.80;;;;;;6225805;28;20404;-82
2022/04/06 08:46:14;;;;;;;7.55;4.03;;;15.50;77.70;;;;;;6227680;28;20050;-82
2022/04/06 08:49:17;;;;;;;4.07;2.20;;;15.40;78.20;;;;;;6227150;28;20049;-83
2022/04/06 08:52:21;;;;;;;3.47;1.50;;;15.40;77.70;;;;;;6227943;28;20113;-80
2022/04/06 08:55:23;;;;;;;4.75;1.65;;;15.30;77.90;;;;;;6225721;28;20057;-82
2022/04/06 08:58:24;;;;;;;2.88;1.38;;;15.30;78.70;;;;;;6226730;28;20407;-84
2022/04/06 09:01:31;;;;;;;1.40;0.85;;;15.40;78.80;;;;;;6215391;28;20054;-83
2022/04/06 09:04:35;;;;;;;3.83;1.35;;;15.50;78.60;;;;;;6224528;28;20050;-85
2022/04/06 09:07:38;;;;;;;2.45;1.13;;;15.50;77.30;;;;;;6227547;28;20049;-83
2022/04/06 09:10:42;;;;;;;2.47;1.33;;;15.50;77.10;;;;;;6225029;28;20129;-82
2022/04/06 09:13:46;;;;;;;1.77;1.17;;;15.40;76.10;;;;;;6226268;28;20419;-83
2022/04/06 09:17:01;;;;;;;3.03;1.50;;;15.30;76.50;;;;;;6225886;28;20137;-82
2022/04/06 09:20:04;;;;;;;2.22;1.17;;;15.50;76.00;;;;;;6229412;28;20046;-82
2022/04/06 09:23:07;;;;;;;3.08;1.58;;;15.60;75.40;;;;;;6225732;28;20105;-83
2022/04/06 09:26:11;;;;;;;3.55;1.15;;;15.80;73.70;;;;;;6225423;28;20133;-83
2022/04/06 09:29:23;;;;;;;2.72;1.20;;;16.10;72.30;;;;;;6219994;28;20069;-83
2022/04/06 09:32:26;;;;;;;3.22;1.92;;;16.30;72.00;;;;;;6200911;28;20054;-83
2022/04/06 09:35:29;;;;;;;1.80;1.40;;;16.50;70.40;;;;;;6202555;28;20536;-83
2022/04/06 09:38:32;;;;;;;2.53;1.40;;;16.80;70.30;;;;;;6212943;28;20050;-82
2022/04/06 09:41:54;;;;;;;2.72;1.05;;;17.30;68.40;;;;;;6208882;28;20137;-83
2022/04/06 09:48:23;;;;;;;0.80;0.77;;;17.60;66.90;;;;;;6186877;28;20061;-83
2022/04/06 09:51:25;;;;;;;1.08;0.75;;;17.80;66.60;;;;;;6224586;28;20097;-83
2022/04/06 09:54:29;;;;;;;2.20;1.08;;;17.80;66.10;;;;;;6224090;28;20054;-81
2022/04/06 09:57:31;;;;;;;1.77;0.80;;;18.00;66.00;;;;;;6221673;28;20058;-82
2022/04/06 10:00:34;;;;;;;2.08;1.02;;;18.40;65.10;;;;;;6214295;28;20174;-81
2022/04/06 10:03:39;;;;;;;4.43;1.52;;;18.40;64.80;;;;;;6210976;28;20050;-82
2022/04/06 10:06:42;;;;;;;2.33;0.88;;;18.50;64.50;;;;;;6221987;28;20050;-82
2022/04/06 10:09:44;;;;;;;1.92;0.88;;;18.90;63.30;;;;;;6222057;28;20053;-82
2022/04/06 10:12:46;;;;;;;1.98;0.98;;;19.20;62.80;;;;;;6222369;28;20130;-82
2022/04/06 10:15:48;;;;;;;1.10;0.88;;;19.20;62.00;;;;;;6223653;28;20129;-82
2022/04/06 10:18:52;;;;;;;1.70;1.08;;;18.90;62.20;;;;;;6222456;28;20052;-82
2022/04/06 10:22:00;;;;;;;1.40;0.65;;;18.50;62.80;;;;;;6222427;28;20050;-83
2022/04/06 10:25:10;;;;;;;1.25;0.70;;;18.30;63.70;;;;;;6221673;28;20076;-81
2022/04/06 10:28:13;;;;;;;2.70;0.90;;;18.50;63.70;;;;;;6222487;28;20062;-82
2022/04/06 10:31:19;;;;;;;1.80;0.88;;;18.60;62.70;;;;;;6214415;28;20073;-83
2022/04/06 10:34:25;;;;;;;1.05;0.77;;;18.60;63.10;;;;;;6223004;28;20080;-83
2022/04/06 10:37:27;;;;;;;1.33;0.80;;;18.50;63.80;;;;;;6226644;28;20453;-82
2022/04/06 10:40:31;;;;;;;3.67;1.20;;;18.40;63.70;;;;;;6226172;28;20513;-83
2022/04/06 10:43:51;;;;;;;3.03;0.85;;;18.50;63.50;;;;;;6226360;28;20408;-82
2022/04/06 10:46:54;;;;;;;1.98;0.68;;;18.90;62.00;;;;;;6225854;28;20416;-82
2022/04/06 10:50:22;;;;;;;1.48;0.80;;;19.30;62.20;;;;;;6225107;28;20056;-83
2022/04/06 10:53:29;;;;;;;2.25;0.90;;;19.70;60.00;;;;;;6228189;28;20080;-82
2022/04/06 10:56:52;;;;;;;2.70;1.35;;;19.90;58.90;;;;;;6228375;28;20101;-82
2022/04/06 11:00:14;;;;;;;3.55;0.88;;;20.00;58.40;;;;;;6217134;28;20089;-83
2022/04/06 11:03:19;;;;;;;1.60;0.73;;;20.10;58.40;;;;;;6229410;28;20049;-82
2022/04/06 11:06:53;;;;;;;1.15;0.80;;;20.10;57.20;;;;;;6234534;28;20060;-83
2022/04/06 11:10:11;;;;;;;3.50;0.90;;;20.20;56.70;;;;;;6233185;28;20049;-83
2022/04/06 11:13:14;;;;;;;0.90;0.70;;;20.40;55.90;;;;;;6236956;28;20060;-82
2022/04/06 11:16:40;;;;;;;1.27;0.55;;;20.90;54.00;;;;;;6234853;28;20082;-83
2022/04/06 11:19:50;;;;;;;0.98;0.45;;;21.20;51.70;;;;;;6226204;28;20137;-82
2022/04/06 11:22:54;;;;;;;1.27;0.63;;;21.50;50.50;;;;;;6225903;28;20113;-81
2022/04/06 11:26:00;;;;;;;0.82;0.70;;;21.60;51.00;;;;;;6225814;28;20053;-81
2022/04/06 11:29:02;;;;;;;1.50;0.70;;;21.80;48.60;;;;;;6219087;28;20064;-81
2022/04/06 11:32:05;;;;;;;1.52;0.70;;;21.70;48.40;;;;;;6201830;28;20463;-81
2022/04/06 11:35:08;;;;;;;1.08;0.70;;;21.70;49.00;;;;;;6201945;28;20054;-81
2022/04/06 11:38:12;;;;;;;1.27;0.60;;;21.60;49.30;;;;;;6200320;28;20053;-81
2022/04/06 11:41:13;;;;;;;0.88;0.45;;;21.60;49.00;;;;;;6201282;28;20054;-81
2022/04/06 11:44:18;;;;;;;1.63;0.70;;;21.40;49.90;;;;;;6201534;28;20108;-81
2022/04/06 11:47:31;;;;;;;0.93;0.50;;;21.40;49.80;;;;;;6200187;28;20050;-82
2022/04/06 11:50:35;;;;;;;1.83;1.08;;;21.30;49.20;;;;;;6201097;28;20064;-82
2022/04/06 11:53:38;;;;;;;2.40;0.80;;;21.40;50.30;;;;;;6208448;28;20102;-82
2022/04/06 11:56:40;;;;;;;6.32;1.35;;;21.80;50.70;;;;;;6216545;28;20050;-82
2022/04/06 11:59:53;;;;;;;2.38;1.25;;;22.10;48.40;;;;;;6220436;28;20125;-82
2022/04/06 12:02:56;;;;;;;1.20;0.52;;;22.10;46.90;;;;;;6227960;28;20050;-82
2022/04/06 12:05:59;;;;;;;3.15;1.02;;;22.00;47.00;;;;;;6224739;28;20061;-81
2022/04/06 12:09:02;;;;;;;1.52;1.35;;;22.00;47.70;;;;;;6227316;28;20416;-84
2022/04/06 12:12:07;;;;;;;2.70;1.92;;;22.00;47.20;;;;;;6227566;28;20046;-83
2022/04/06 12:15:15;;;;;;;1.15;0.68;;;22.00;46.80;;;;;;6229386;28;20046;-85
2022/04/06 12:18:17;;;;;;;;;;;21.80;45.50;;;;;;6230253;28;20061;-85
2022/04/06 12:21:19;;;;;;;3.03;1.05;;;21.30;46.50;;;;;;6234787;28;19921;-84
2022/04/06 12:24:36;;;;;;;2.55;1.50;;;20.80;47.30;;;;;;6233954;28;20048;-84
2022/04/06 12:27:38;;;;;;;10.82;1.30;;;20.70;49.10;;;;;;6231117;28;20046;-87
2022/04/06 12:31:10;;;;;;;2.45;1.23;;;20.90;49.80;;;;;;6218480;28;20127;-86
2022/04/06 12:34:41;;;;;;;2.53;0.80;;;21.20;49.60;;;;;;6207050;28;20054;-85
2022/04/06 12:37:42;;;;;;;3.28;1.13;;;21.40;49.20;;;;;;6203158;28;20531;-85
2022/04/06 12:40:47;;;;;;;7.18;4.32;;;21.50;48.90;;;;;;6201754;28;20065;-85
2022/04/06 12:43:49;;;;;;;4.05;1.25;;;21.50;49.00;;;;;;6201803;28;20046;-84
2022/04/06 12:46:52;;;;;;;2.95;0.70;;;21.30;49.50;;;;;;6203936;28;20061;-84
2022/04/06 12:50:11;;;;;;;1.30;0.80;;;21.20;49.70;;;;;;6202079;28;20046;-85
2022/04/06 12:53:20;;;;;;;2.13;0.70;;;21.10;49.70;;;;;;6203540;28;20501;-85
2022/04/06 12:56:23;;;;;;;0.82;0.60;;;21.10;49.80;;;;;;6201983;28;20054;-84
2022/04/06 12:59:54;;;;;;;1.02;0.60;;;21.10;49.10;;;;;;6224666;28;20070;-85
2022/04/06 13:02:55;;;;;;;1.90;1.38;;;21.20;49.40;;;;;;6202837;28;20064;-84
2022/04/06 13:05:57;;;;;;;2.55;1.48;;;21.20;49.00;;;;;;6202115;28;20540;-85
2022/04/06 13:08:59;;;;;;;4.40;1.48;;;21.20;50.10;;;;;;6202019;28;20057;-86
2022/04/06 13:12:02;;;;;;;3.58;1.38;;;21.20;49.60;;;;;;6202958;28;20057;-84
2022/04/06 13:15:06;;;;;;;3.25;1.40;;;21.20;49.60;;;;;;6203126;28;20050;-85
2022/04/06 13:18:10;;;;;;;6.78;1.52;;;21.30;49.50;;;;;;6202254;28;20124;-82
2022/04/06 13:21:14;;;;;;;6.35;1.60;;;21.40;49.00;;;;;;6199993;28;20058;-86
2022/04/06 13:24:22;;;;;;;8.23;3.67;;;21.30;49.20;;;;;;6212613;28;20066;-86
2022/04/06 13:27:25;;;;;;;5.05;3.33;;;21.60;49.10;;;;;;6207954;28;20060;-83
2022/04/06 13:30:36;;;;;;;9.45;4.28;;;21.50;48.30;;;;;;6217426;28;20050;-86
2022/04/06 13:33:37;;;;;;;6.82;2.90;;;21.40;47.90;;;;;;6228365;28;20060;-86
2022/04/06 13:36:40;;;;;;;6.93;2.90;;;21.50;48.00;;;;;;6223433;28;20063;-85
2022/04/06 13:39:42;;;;;;;5.82;2.70;;;21.40;48.00;;;;;;6228408;28;20052;-85
2022/04/06 13:42:45;;;;;;;7.32;3.03;;;21.40;48.30;;;;;;6228849;28;20053;-84
2022/04/06 13:45:47;;;;;;;8.75;3.55;;;21.50;47.80;;;;;;6228717;28;20188;-84
2022/04/06 13:48:49;;;;;;;11.70;4.75;;;21.40;47.80;;;;;;6229990;28;20129;-84
2022/04/06 13:51:54;;;;;;;15.25;8.80;;;21.20;48.00;;;;;;6232008;28;20057;-85
2022/04/06 13:54:56;;;;;;;18.98;8.32;;;21.40;48.20;;;;;;6225747;28;20081;-85
2022/04/06 13:58:00;;;;;;;16.50;9.20;;;21.50;47.70;;;;;;6223304;28;20054;-84
2022/04/06 14:01:01;;;;;;;6.25;3.75;;;21.60;47.40;;;;;;6222227;28;20103;-84
2022/04/06 14:04:04;;;;;;;6.32;2.30;;;21.60;46.50;;;;;;6231941;28;20058;-85
2022/04/06 14:07:06;;;;;;;4.15;1.33;;;21.60;46.50;;;;;;6228537;28;20289;-84
2022/04/06 14:10:08;;;;;;;8.52;2.83;;;21.60;46.20;;;;;;6232039;28;20069;-85
2022/04/06 14:13:12;;;;;;;10.40;3.80;;;21.50;46.90;;;;;;6231668;28;20085;-84
2022/04/06 14:16:14;;;;;;;4.97;3.38;;;21.30;46.50;;;;;;6235440;28;20100;-86
2022/04/06 14:19:16;;;;;;;11.88;8.38;;;21.20;46.90;;;;;;6236628;28;20053;-84
2022/04/06 14:22:51;;;;;;;12.40;10.93;;;21.20;47.00;;;;;;6235480;28;20050;-84
2022/04/06 14:26:14;;;;;;;8.45;5.97;;;21.10;47.20;;;;;;6232129;28;20181;-82
2022/04/06 14:29:17;;;;;;;17.33;11.13;;;21.00;47.30;;;;;;6235484;28;20034;-83
2022/04/06 14:32:22;;;;;;;12.02;8.45;;;21.00;47.60;;;;;;6238509;28;20054;-86
2022/04/06 14:35:24;;;;;;;5.38;3.65;;;21.20;47.60;;;;;;6231397;28;20062;-81
2022/04/06 14:38:30;;;;;;;5.25;2.90;;;21.30;47.40;;;;;;6227509;28;20419;-83
2022/04/06 14:41:36;;;;;;;3.28;1.10;;;21.20;46.40;;;;;;6236706;28;20166;-81
2022/04/06 14:44:39;;;;;;;3.00;1.45;;;21.10;47.00;;;;;;6233459;28;20125;-80
2022/04/06 14:47:41;;;;;;;2.45;0.90;;;21.20;46.80;;;;;;6234005;28;20053;-78
2022/04/06 14:50:43;;;;;;;1.80;0.75;;;21.20;46.00;;;;;;6234975;28;20042;-82
2022/04/06 14:53:45;;;;;;;2.72;1.00;;;21.10;46.70;;;;;;6236761;28;20057;-81
2022/04/06 14:56:47;;;;;;;2.25;0.80;;;21.10;46.30;;;;;;6239268;28;20448;-81
2022/04/06 14:59:51;;;;;;;4.00;0.93;;;21.10;46.50;;;;;;6229557;28;20539;-84
2022/04/06 15:02:52;;;;;;;0.85;0.50;;;21.00;46.10;;;;;;6238776;28;20053;-83
2022/04/06 15:05:54;;;;;;;5.25;1.65;;;20.90;46.40;;;;;;6237664;28;20464;-81
2022/04/06 15:08:56;;;;;;;4.20;0.70;;;20.70;47.00;;;;;;6236798;28;20050;-82
2022/04/06 15:12:02;;;;;;;4.45;0.80;;;20.60;47.10;;;;;;6236729;28;20053;-82
2022/04/06 15:15:08;;;;;;;5.45;1.67;;;20.60;47.60;;;;;;6234890;28;20066;-80
2022/04/06 15:18:21;;;;;;;5.63;0.80;;;20.50;46.90;;;;;;6231566;28;20042;-83
2022/04/06 15:24:41;;;;;;;;;;;20.20;47.20;;;;;;6212545;28;20065;-83
2022/04/06 15:27:44;;;;;;;2.40;0.70;;;20.00;47.80;;;;;;6226423;28;19921;-80
2022/04/06 15:30:47;;;;;;;1.88;0.85;;;20.00;48.70;;;;;;6223928;28;20396;-81
2022/04/06 15:33:49;;;;;;;5.03;0.73;;;19.90;48.40;;;;;;6230545;28;20654;-83
2022/04/06 15:47:41;;;;;;;2.50;0.60;;;18.90;51.40;;;;;;6238354;28;20058;-82
2022/04/06 15:58:34;;;;;;;4.20;0.70;;;18.20;52.70;;;;;;6115843;29;20130;-81
2022/04/06 16:01:56;;;;;;;2.85;0.90;;;18.00;53.50;;;;;;6103127;29;20105;-82
2022/04/06 16:08:24;;;;;;;5.35;0.88;;;17.60;54.70;;;;;;6119980;29;20102;-81
2022/04/06 16:11:46;;;;;;;2.63;0.52;;;17.40;55.20;;;;;;6163817;28;20050;-82
2022/04/06 16:15:08;;;;;;;2.50;0.90;;;17.30;55.40;;;;;;6209613;28;20114;-83
2022/04/06 16:18:13;;;;;;;2.30;0.60;;;17.20;56.00;;;;;;6212344;28;20050;-83
2022/04/06 16:21:21;;;;;;;5.78;0.82;;;17.00;56.50;;;;;;6234493;28;20109;-83
2022/04/06 16:24:31;;;;;;;2.50;0.60;;;17.00;56.90;;;;;;6231532;28;20053;-82
2022/04/06 16:27:33;;;;;;;8.95;1.15;;;17.00;57.50;;;;;;6228235;28;20050;-82
2022/04/06 16:30:36;;;;;;;3.90;0.80;;;16.90;57.70;;;;;;6222461;28;20071;-80
2022/04/06 16:33:59;;;;;;;2.05;0.82;;;16.90;58.00;;;;;;6227812;28;20075;-83